Bargaintown, New Jersey
Current Conditions -  °F | °C
As of 8:27 PM on Monday 22 Dec 2014 (Local Time) from KACY Reporting Station
Light Rain Light Rain  
Wind Chill: 36°   Ceiling: 7000
Heat Index: 41°   Visibility: 7mi
Dew Point: 40°   Wind: 7mph
Humidity: 96%   Direction: 40°NE
Pressure: 30.15"   Gusts: NA
Location:  39.365°N, 74.6283°W
Report Text: KACY 230127Z 04006KT 7SM -RA SCT019 BKN070 OVC085 05/04 A3015 RMK AO2 P0000 T00500044
Loading
Personal Weather Stations






























Interactive Weather Map New forecast layout! Learn more

10-Day Weather Forecast

Advertisements
Track Severe Weather on mobile